createdAt,value
2024-04-18T00:02:19.407Z,53.32
2024-04-18T00:04:48.412Z,53.01
2024-04-18T00:07:16.010Z,53.20
2024-04-18T00:09:42.963Z,53.22
2024-04-18T00:12:10.568Z,53.81
2024-04-18T00:14:37.299Z,53.22
2024-04-18T00:17:04.495Z,53.93
2024-04-18T00:19:32.674Z,53.53
2024-04-18T00:22:00.276Z,52.96
2024-04-18T00:24:32.375Z,53.09
2024-04-18T00:26:59.017Z,52.96
2024-04-18T00:29:25.637Z,53.23
2024-04-18T00:31:53.011Z,52.98
2024-04-18T00:34:19.859Z,52.92
2024-04-18T00:36:47.160Z,54.23
2024-04-18T00:39:19.420Z,54.40
2024-04-18T00:41:46.819Z,54.11
2024-04-18T00:44:14.811Z,54.04
2024-04-18T00:46:41.540Z,53.21
2024-04-18T00:49:08.755Z,53.13
2024-04-18T00:51:35.946Z,53.30
2024-04-18T00:54:05.087Z,53.61
2024-04-18T00:56:34.021Z,53.57
2024-04-18T00:59:03.895Z,53.59
2024-04-18T01:01:31.699Z,53.56
2024-04-18T01:03:59.890Z,53.79
2024-04-18T01:06:31.600Z,53.80
2024-04-18T01:09:00.920Z,53.79
2024-04-18T01:11:27.646Z,53.83
2024-04-18T01:14:11.095Z,53.73
2024-04-18T01:16:45.897Z,53.58
2024-04-18T01:19:21.173Z,53.77
2024-04-18T01:21:48.473Z,53.85
2024-04-18T01:24:15.667Z,54.11
2024-04-18T01:26:44.438Z,53.98
2024-04-18T01:29:11.615Z,54.30
2024-04-18T01:31:43.066Z,54.41
2024-04-18T01:34:10.751Z,54.53
2024-04-18T01:36:40.671Z,54.05
2024-04-18T01:39:08.855Z,54.50
2024-04-18T01:41:37.277Z,55.04
2024-04-18T01:44:04.505Z,54.64
2024-04-18T01:46:34.148Z,54.79
2024-04-18T01:49:00.847Z,54.95
2024-04-18T01:51:29.084Z,55.09
2024-04-18T01:53:56.159Z,54.83
2024-04-18T01:56:23.911Z,54.96
2024-04-18T01:58:50.450Z,54.99
2024-04-18T02:01:25.073Z,54.91
2024-04-18T02:03:52.596Z,54.74
2024-04-18T02:06:21.150Z,55.00
2024-04-18T02:08:49.533Z,55.91
2024-04-18T02:11:16.275Z,55.24
2024-04-18T02:13:45.439Z,55.48
2024-04-18T02:16:18.755Z,55.58
2024-04-18T02:18:46.686Z,55.97
2024-04-18T02:21:13.771Z,55.95
2024-04-18T02:23:42.637Z,56.19
2024-04-18T02:26:09.591Z,55.90
2024-04-18T02:28:37.629Z,56.30
2024-04-18T02:31:10.434Z,55.84
2024-04-18T02:33:37.051Z,55.86
2024-04-18T02:36:04.316Z,56.73
2024-04-18T02:38:33.283Z,55.99
2024-04-18T02:41:08.079Z,56.43
2024-04-18T02:43:38.421Z,56.48
2024-04-18T02:46:06.063Z,56.46
2024-04-18T02:48:34.377Z,56.46
2024-04-18T02:51:01.384Z,56.36
2024-04-18T02:53:28.261Z,55.82
2024-04-18T02:55:56.005Z,56.10
2024-04-18T02:58:23.390Z,56.20
2024-04-18T03:00:50.828Z,56.21
2024-04-18T03:03:18.814Z,57.35
2024-04-18T03:05:45.569Z,57.14
2024-04-18T03:08:12.104Z,57.08
2024-04-18T03:10:49.668Z,56.80
2024-04-18T03:13:18.741Z,57.04
2024-04-18T03:15:48.424Z,57.09
2024-04-18T03:18:18.981Z,57.06
2024-04-18T03:20:53.652Z,56.68
2024-04-18T03:23:20.905Z,56.59
2024-04-18T03:25:48.738Z,56.89
2024-04-18T03:28:16.729Z,57.34
2024-04-18T03:30:43.773Z,57.58
2024-04-18T03:33:10.614Z,57.51
2024-04-18T03:35:42.361Z,57.24
2024-04-18T03:38:11.658Z,56.91
2024-04-18T03:40:38.770Z,57.15
2024-04-18T03:43:05.551Z,57.47
2024-04-18T03:45:35.870Z,57.98
2024-04-18T03:48:02.603Z,58.08
2024-04-18T03:50:29.157Z,58.17
2024-04-18T03:52:57.918Z,58.33
2024-04-18T03:55:25.266Z,58.32
2024-04-18T03:57:52.055Z,58.57
2024-04-18T04:00:19.244Z,58.53
2024-04-18T04:02:46.080Z,58.43
2024-04-18T04:05:14.881Z,57.93
2024-04-18T04:07:42.500Z,58.08
2024-04-18T04:10:14.632Z,58.36
2024-04-18T04:12:42.786Z,58.35
2024-04-18T04:15:13.203Z,58.41
2024-04-18T04:17:48.636Z,58.82
2024-04-18T04:20:15.676Z,58.62
2024-04-18T04:22:43.259Z,58.41
2024-04-18T04:25:10.680Z,58.51
2024-04-18T04:27:37.446Z,58.74
2024-04-18T04:30:06.932Z,59.50
2024-04-18T04:32:35.113Z,59.31
2024-04-18T04:35:02.665Z,59.10
2024-04-18T04:37:31.515Z,59.11
2024-04-18T04:39:58.211Z,59.56
2024-04-18T04:42:24.958Z,59.84
2024-04-18T04:44:53.512Z,59.30
2024-04-18T04:47:20.338Z,58.88
2024-04-18T04:49:47.766Z,59.42
2024-04-18T04:52:15.940Z,58.86
2024-04-18T04:54:44.476Z,59.00
2024-04-18T04:57:14.765Z,58.93
2024-04-18T04:59:44.678Z,59.09
2024-04-18T05:02:11.201Z,60.05
2024-04-18T05:04:38.247Z,60.29
2024-04-18T05:07:04.882Z,59.95
2024-04-18T05:09:31.358Z,59.98
2024-04-18T05:12:02.229Z,59.99
2024-04-18T05:14:30.943Z,60.01
2024-04-18T05:17:09.078Z,60.77
2024-04-18T05:19:38.354Z,59.75
2024-04-18T05:22:04.752Z,59.73
2024-04-18T05:24:34.656Z,59.75
2024-04-18T05:27:05.316Z,59.89
2024-04-18T05:29:51.674Z,60.84
2024-04-18T05:32:18.640Z,60.88
2024-04-18T05:34:48.781Z,60.42
2024-04-18T05:37:15.619Z,60.95
2024-04-18T05:39:43.271Z,60.90
2024-04-18T05:42:11.189Z,60.46
2024-04-18T05:44:40.983Z,60.90
2024-04-18T05:47:16.842Z,60.04
2024-04-18T05:49:43.741Z,59.87
2024-04-18T05:52:10.914Z,59.31
2024-04-18T05:54:38.321Z,59.47
2024-04-18T05:57:09.390Z,59.68
2024-04-18T05:59:37.516Z,59.61
2024-04-18T06:02:04.210Z,60.21
2024-04-18T06:04:30.615Z,59.95
2024-04-18T06:06:59.513Z,59.50
2024-04-18T06:09:26.252Z,59.27
2024-04-18T06:11:54.499Z,59.56
2024-04-18T06:14:21.278Z,59.75
2024-04-18T06:16:48.758Z,59.08
2024-04-18T06:19:15.361Z,58.67
2024-04-18T06:21:44.365Z,58.51
2024-04-18T06:24:12.978Z,58.77
2024-04-18T06:26:42.490Z,58.97
2024-04-18T06:29:11.863Z,58.82
2024-04-18T06:31:42.588Z,58.64
2024-04-18T06:34:09.085Z,58.42
2024-04-18T06:36:35.963Z,58.40
2024-04-18T06:39:02.570Z,58.18
2024-04-18T06:41:29.088Z,57.94
2024-04-18T06:43:57.622Z,57.69
2024-04-18T06:46:26.810Z,57.66
2024-04-18T06:48:54.611Z,57.41
2024-04-18T06:51:21.401Z,57.32
2024-04-18T06:53:50.270Z,57.19
2024-04-18T06:56:23.127Z,57.20
2024-04-18T06:58:53.605Z,57.20
2024-04-18T07:01:25.013Z,57.02
2024-04-18T07:06:36.549Z,56.64
2024-04-18T07:09:04.220Z,56.41
2024-04-18T07:11:33.590Z,56.27
2024-04-18T07:14:02.711Z,56.11
2024-04-18T07:16:37.062Z,55.77
2024-04-18T07:19:05.781Z,55.67
2024-04-18T07:21:33.790Z,55.41
2024-04-18T07:24:03.090Z,54.91
2024-04-18T07:26:29.869Z,54.85
2024-04-18T07:28:57.058Z,54.51
2024-04-18T07:31:31.167Z,54.12
2024-04-18T07:33:57.675Z,54.33
2024-04-18T07:36:24.602Z,54.01
2024-04-18T07:38:51.324Z,53.81
2024-04-18T07:41:24.234Z,53.76
2024-04-18T07:43:52.926Z,53.09
2024-04-18T07:46:19.800Z,53.08
2024-04-18T07:48:48.795Z,53.03
2024-04-18T07:51:15.397Z,52.99
2024-04-18T07:53:42.704Z,52.42
2024-04-18T07:56:09.877Z,51.40
2024-04-18T07:58:38.630Z,51.72
2024-04-18T08:01:07.698Z,51.43
2024-04-18T08:03:39.129Z,51.09
2024-04-18T08:06:09.740Z,51.35
2024-04-18T08:08:40.943Z,51.16
2024-04-18T08:13:47.717Z,50.44
2024-04-18T08:16:19.181Z,50.03
2024-04-18T08:18:48.956Z,49.74
2024-04-18T08:21:15.414Z,49.67
2024-04-18T08:23:51.706Z,49.52
2024-04-18T08:26:18.870Z,49.15
2024-04-18T08:28:45.880Z,48.30
2024-04-18T08:31:12.300Z,48.31
2024-04-18T08:33:40.050Z,48.08
2024-04-18T08:36:10.325Z,47.89
2024-04-18T08:38:37.702Z,48.40
2024-04-18T08:41:11.669Z,48.00
2024-04-18T08:43:41.138Z,48.51
2024-04-18T08:46:12.923Z,48.73
2024-04-18T08:48:41.201Z,48.25
2024-04-18T08:51:08.740Z,48.03
2024-04-18T08:53:35.757Z,46.77
2024-04-18T08:56:09.246Z,45.87
2024-04-18T08:58:38.286Z,45.60
2024-04-18T09:01:05.555Z,46.10
2024-04-18T09:03:32.391Z,45.43
2024-04-18T09:06:01.563Z,45.98
2024-04-18T09:08:29.123Z,46.31
2024-04-18T09:11:00.800Z,46.04
2024-04-18T09:13:27.614Z,45.81
2024-04-18T09:15:54.496Z,46.01
2024-04-18T09:18:23.117Z,45.26
2024-04-18T09:20:51.988Z,44.95
2024-04-18T09:23:19.098Z,44.59
2024-04-18T09:25:46.094Z,43.91
2024-04-18T09:28:20.188Z,43.13
2024-04-18T09:30:57.330Z,43.53
2024-04-18T09:33:26.373Z,42.95
2024-04-18T09:36:02.847Z,43.23
2024-04-18T09:38:35.171Z,43.23
2024-04-18T09:41:39.982Z,42.85
2024-04-18T09:44:20.483Z,42.75
2024-04-18T09:46:50.687Z,43.05
2024-04-18T09:49:19.246Z,42.51
2024-04-18T09:51:49.210Z,42.07
2024-04-18T09:54:18.771Z,41.47
2024-04-18T09:56:49.818Z,41.61
2024-04-18T09:59:17.858Z,39.83
2024-04-18T10:01:46.035Z,39.08
2024-04-18T10:04:12.634Z,39.65
2024-04-18T10:06:43.993Z,39.60
2024-04-18T10:09:18.831Z,38.85
2024-04-18T10:11:47.792Z,39.46
2024-04-18T10:14:15.275Z,38.89
2024-04-18T10:16:50.434Z,38.61
2024-04-18T10:19:23.093Z,38.37
2024-04-18T10:22:11.089Z,38.74
2024-04-18T10:24:50.884Z,39.00
2024-04-18T10:27:26.084Z,39.48
2024-04-18T10:29:57.005Z,39.57
2024-04-18T10:32:30.115Z,38.01
2024-04-18T10:35:01.425Z,38.11
2024-04-18T10:37:28.870Z,38.16
2024-04-18T10:39:58.083Z,37.91
2024-04-18T10:42:25.727Z,37.09
2024-04-18T10:44:52.936Z,38.13
2024-04-18T10:47:22.138Z,37.23
2024-04-18T10:49:52.493Z,38.36
2024-04-18T10:52:19.223Z,38.41
2024-04-18T10:54:47.237Z,38.57
2024-04-18T10:57:14.441Z,38.36
2024-04-18T10:59:47.715Z,38.81
2024-04-18T11:02:14.802Z,38.95
2024-04-18T11:04:43.199Z,39.20
2024-04-18T11:07:12.642Z,38.72
2024-04-18T11:09:41.421Z,38.94
2024-04-18T11:12:11.016Z,38.98
2024-04-18T11:14:39.764Z,39.47
2024-04-18T11:17:07.414Z,39.18
2024-04-18T11:19:35.318Z,38.55
2024-04-18T11:22:04.859Z,38.76
2024-04-18T11:24:34.504Z,37.82
2024-04-18T11:27:07.868Z,37.45
2024-04-18T11:29:35.171Z,36.65
2024-04-18T11:32:10.819Z,35.40
2024-04-18T11:34:43.137Z,34.54
2024-04-18T11:37:12.761Z,34.70
2024-04-18T11:39:44.871Z,35.03
2024-04-18T11:42:19.777Z,35.97
2024-04-18T11:44:46.361Z,35.77
2024-04-18T11:47:14.670Z,35.96
2024-04-18T11:49:43.309Z,35.75
2024-04-18T11:52:10.363Z,36.13
2024-04-18T11:54:38.798Z,36.14
2024-04-18T11:57:06.647Z,36.41
2024-04-18T11:59:35.008Z,36.39
2024-04-18T12:02:06.203Z,36.36
2024-04-18T12:04:33.028Z,36.63
2024-04-18T12:06:59.672Z,36.50
2024-04-18T12:09:27.627Z,36.68
2024-04-18T12:11:54.712Z,36.89
2024-04-18T12:14:21.278Z,37.47
2024-04-18T12:16:47.994Z,37.43
2024-04-18T12:19:14.487Z,37.65
2024-04-18T12:21:41.181Z,37.51
2024-04-18T12:24:07.785Z,37.33
2024-04-18T12:26:35.580Z,37.24
2024-04-18T12:29:03.895Z,37.05
2024-04-18T12:31:30.892Z,37.26
2024-04-18T12:33:57.685Z,37.56
2024-04-18T12:36:26.707Z,37.79
2024-04-18T12:38:53.822Z,37.45
2024-04-18T12:41:24.806Z,37.44
2024-04-18T12:43:52.677Z,37.79
2024-04-18T12:46:23.653Z,37.85
2024-04-18T12:48:52.329Z,37.63
2024-04-18T12:51:19.114Z,37.24
2024-04-18T12:53:46.064Z,36.11
2024-04-18T12:56:13.683Z,35.78
2024-04-18T12:58:41.095Z,34.85
2024-04-18T13:01:13.286Z,34.18
2024-04-18T13:03:42.297Z,34.78
2024-04-18T13:06:09.832Z,34.24
2024-04-18T13:08:38.707Z,34.71
2024-04-18T13:11:09.121Z,34.44
2024-04-18T13:13:35.854Z,34.75
2024-04-18T13:16:07.861Z,34.26
2024-04-18T13:18:37.259Z,34.53
2024-04-18T13:21:04.330Z,34.70
2024-04-18T13:23:30.972Z,34.80
2024-04-18T13:26:00.483Z,34.66
2024-04-18T13:28:27.022Z,34.77
2024-04-18T13:30:57.624Z,34.99
2024-04-18T13:33:26.145Z,34.85
2024-04-18T13:35:53.954Z,34.87
2024-04-18T13:38:22.168Z,34.80
2024-04-18T13:40:48.784Z,35.33
2024-04-18T13:43:15.539Z,35.72
2024-04-18T13:45:42.166Z,35.38
2024-04-18T13:48:11.612Z,34.34
2024-04-18T13:50:39.644Z,34.16
2024-04-18T13:53:08.717Z,34.18
2024-04-18T13:55:35.276Z,34.28
2024-04-18T13:58:02.002Z,34.27
2024-04-18T14:00:30.477Z,34.19
2024-04-18T14:02:58.320Z,34.29
2024-04-18T14:05:26.041Z,34.20
2024-04-18T14:07:52.580Z,34.67
2024-04-18T14:10:20.421Z,34.31
2024-04-18T14:12:48.336Z,33.33
2024-04-18T14:15:28.294Z,33.66
2024-04-18T14:18:14.903Z,33.95
2024-04-18T14:20:48.914Z,33.47
2024-04-18T14:23:16.656Z,33.55
2024-04-18T14:25:45.641Z,33.75
2024-04-18T14:28:23.157Z,33.31
2024-04-18T14:30:54.746Z,33.15
2024-04-18T14:33:21.635Z,32.64
2024-04-18T14:35:48.176Z,33.01
2024-04-18T14:38:15.629Z,32.91
2024-04-18T14:40:49.934Z,33.29
2024-04-18T14:43:27.341Z,33.76
2024-04-18T14:45:53.885Z,33.80
2024-04-18T14:48:21.583Z,33.89
2024-04-18T14:50:53.122Z,34.09
2024-04-18T14:53:26.630Z,34.01
2024-04-18T14:55:56.241Z,34.24
2024-04-18T14:58:23.192Z,34.59
2024-04-18T15:00:53.484Z,34.63
2024-04-18T15:03:21.239Z,34.42
2024-04-18T15:05:56.582Z,33.92
2024-04-18T15:08:24.658Z,34.12
2024-04-18T15:10:55.310Z,34.18
2024-04-18T15:13:24.252Z,34.12
2024-04-18T15:15:52.058Z,34.09
2024-04-18T15:18:20.175Z,34.36
2024-04-18T15:20:49.256Z,34.27
2024-04-18T15:23:16.158Z,34.45
2024-04-18T15:25:43.960Z,34.39
2024-04-18T15:28:10.702Z,34.31
2024-04-18T15:30:37.723Z,34.62
2024-04-18T15:33:05.392Z,34.90
2024-04-18T15:35:32.489Z,34.99
2024-04-18T15:38:01.413Z,34.89
2024-04-18T15:40:29.117Z,35.18
2024-04-18T15:42:56.943Z,35.55
2024-04-18T15:45:23.802Z,35.88
2024-04-18T15:47:52.917Z,35.78
2024-04-18T15:50:26.396Z,35.73
2024-04-18T15:52:54.180Z,35.92
2024-04-18T15:55:31.214Z,36.23
2024-04-18T15:57:58.561Z,36.05
2024-04-18T16:00:25.471Z,36.25
2024-04-18T16:02:54.134Z,36.58
2024-04-18T16:05:25.318Z,36.81
2024-04-18T16:07:52.912Z,36.91
2024-04-18T16:10:20.506Z,37.16
2024-04-18T16:12:50.781Z,37.36
2024-04-18T16:15:18.643Z,38.09
2024-04-18T16:17:46.931Z,39.25
2024-04-18T16:20:14.252Z,40.34
2024-04-18T16:22:41.612Z,40.69
2024-04-18T16:25:11.077Z,40.92
2024-04-18T16:27:37.564Z,41.08
2024-04-18T16:30:06.320Z,41.33
2024-04-18T16:32:34.000Z,41.52
2024-04-18T16:35:03.492Z,41.58
2024-04-18T16:37:42.207Z,41.93
2024-04-18T16:40:11.192Z,42.01
2024-04-18T16:42:41.648Z,42.22
2024-04-18T16:45:09.330Z,42.29
2024-04-18T16:47:38.284Z,42.39
2024-04-18T16:50:07.849Z,42.76
2024-04-18T16:52:36.780Z,43.06
2024-04-18T16:55:04.934Z,43.43
2024-04-18T16:57:35.435Z,44.15
2024-04-18T17:00:06.111Z,44.74
2024-04-18T17:02:40.412Z,44.78
2024-04-18T17:05:13.469Z,44.65
2024-04-18T17:07:44.112Z,44.78
2024-04-18T17:10:11.860Z,45.38
2024-04-18T17:12:39.913Z,45.55
2024-04-18T17:15:11.673Z,45.65
2024-04-18T17:17:40.618Z,46.28
2024-04-18T17:20:12.816Z,46.38
2024-04-18T17:22:43.031Z,46.58
2024-04-18T17:25:12.883Z,46.81
2024-04-18T17:27:40.671Z,46.79
2024-04-18T17:30:09.460Z,46.91
2024-04-18T17:32:39.146Z,47.24
2024-04-18T17:35:07.082Z,47.45
2024-04-18T17:37:37.775Z,47.74
2024-04-18T17:40:07.065Z,48.14
2024-04-18T17:42:35.766Z,48.39
2024-04-18T17:45:03.860Z,48.44
2024-04-18T17:47:38.742Z,48.53
2024-04-18T17:50:11.189Z,48.67
2024-04-18T17:52:38.941Z,48.86
2024-04-18T17:55:07.207Z,48.98
2024-04-18T17:57:37.477Z,48.86
2024-04-18T18:00:08.908Z,49.20
2024-04-18T18:02:40.021Z,49.33
2024-04-18T18:05:07.943Z,49.33
2024-04-18T18:07:38.344Z,49.15
2024-04-18T18:10:07.898Z,49.12
2024-04-18T18:12:38.466Z,49.22
2024-04-18T18:15:06.549Z,49.15
2024-04-18T18:17:37.251Z,49.36
2024-04-18T18:20:06.539Z,49.53
2024-04-18T18:22:34.458Z,49.53
2024-04-18T18:25:02.331Z,49.65
2024-04-18T18:27:32.312Z,49.46
2024-04-18T18:30:02.451Z,49.59
2024-04-18T18:32:32.366Z,49.74
2024-04-18T18:35:00.655Z,49.72
2024-04-18T18:37:31.677Z,49.63
2024-04-18T18:40:00.948Z,49.59
2024-04-18T18:42:31.048Z,49.43
2024-04-18T18:44:58.744Z,49.37
2024-04-18T18:47:26.940Z,49.61
2024-04-18T18:49:55.341Z,49.54
2024-04-18T18:52:23.832Z,49.44
2024-04-18T18:54:51.510Z,49.30
2024-04-18T18:57:22.387Z,49.61
2024-04-18T18:59:50.075Z,49.92
2024-04-18T19:02:18.564Z,49.44
2024-04-18T19:04:46.547Z,49.87
2024-04-18T19:07:21.373Z,49.75
2024-04-18T19:09:49.383Z,49.72
2024-04-18T19:12:17.034Z,49.76
2024-04-18T19:14:44.760Z,49.78
2024-04-18T19:17:14.733Z,49.89
2024-04-18T19:19:43.678Z,49.99
2024-04-18T19:22:11.962Z,50.00
2024-04-18T19:24:41.212Z,50.02
2024-04-18T19:27:08.854Z,49.80
2024-04-18T19:29:46.399Z,49.89
2024-04-18T19:32:20.500Z,49.98
2024-04-18T19:34:48.245Z,49.95
2024-04-18T19:37:20.147Z,49.88
2024-04-18T19:39:48.807Z,49.85
2024-04-18T19:42:17.686Z,49.83
2024-04-18T19:44:45.489Z,49.76
2024-04-18T19:47:14.659Z,49.73
2024-04-18T19:49:43.398Z,49.58
2024-04-18T19:52:11.631Z,49.54
2024-04-18T19:54:43.568Z,49.58
2024-04-18T19:57:11.478Z,49.62
2024-04-18T19:59:41.275Z,49.32
2024-04-18T20:02:11.935Z,49.19
2024-04-18T20:04:42.036Z,48.90
2024-04-18T20:07:11.610Z,48.78
2024-04-18T20:09:39.377Z,48.76
2024-04-18T20:12:10.003Z,48.85
2024-04-18T20:14:38.277Z,48.90
2024-04-18T20:17:10.051Z,48.98
2024-04-18T20:19:39.321Z,49.54
2024-04-18T20:22:08.533Z,49.99
2024-04-18T20:24:36.769Z,49.73
2024-04-18T20:27:09.554Z,49.82
2024-04-18T20:29:37.888Z,49.82
2024-04-18T20:32:06.324Z,50.13
2024-04-18T20:34:34.093Z,50.01
2024-04-18T20:37:04.166Z,50.12
2024-04-18T20:39:32.501Z,50.23
2024-04-18T20:42:01.710Z,50.46
2024-04-18T20:44:29.298Z,50.57
2024-04-18T20:46:57.455Z,50.69
2024-04-18T20:49:27.303Z,50.61
2024-04-18T20:51:57.688Z,50.69
2024-04-18T20:54:25.317Z,50.88
2024-04-18T20:56:58.576Z,50.99
2024-04-18T20:59:30.283Z,50.98
2024-04-18T21:02:02.035Z,51.15
2024-04-18T21:04:30.228Z,51.37
2024-04-18T21:06:57.873Z,51.31
2024-04-18T21:09:25.695Z,51.37
2024-04-18T21:11:53.896Z,51.70
2024-04-18T21:14:23.152Z,52.23
2024-04-18T21:16:52.276Z,52.06
2024-04-18T21:19:22.783Z,51.95
2024-04-18T21:21:53.476Z,52.02
2024-04-18T21:24:23.581Z,52.15
2024-04-18T21:26:51.823Z,52.52
2024-04-18T21:29:20.934Z,52.72
2024-04-18T21:31:49.389Z,52.67
2024-04-18T21:34:19.678Z,52.81
2024-04-18T21:36:48.452Z,52.85
2024-04-18T21:39:16.449Z,52.74
2024-04-18T21:41:46.933Z,52.96
2024-04-18T21:44:16.562Z,53.00
2024-04-18T21:46:45.571Z,53.15
2024-04-18T21:49:15.961Z,53.18
2024-04-18T21:51:43.697Z,53.42
2024-04-18T21:54:13.763Z,53.68
2024-04-18T21:56:41.325Z,53.92
2024-04-18T21:59:09.216Z,53.94
2024-04-18T22:01:36.876Z,54.09
2024-04-18T22:04:05.056Z,54.34
2024-04-18T22:06:34.695Z,54.50
2024-04-18T22:09:03.230Z,54.70
2024-04-18T22:11:31.994Z,54.95
2024-04-18T22:14:00.152Z,55.24
2024-04-18T22:16:29.883Z,54.95
2024-04-18T22:19:00.898Z,55.30
2024-04-18T22:21:29.048Z,54.97
2024-04-18T22:23:58.412Z,55.84
2024-04-18T22:26:26.552Z,55.77
2024-04-18T22:28:54.166Z,55.67
2024-04-18T22:31:22.031Z,56.55
2024-04-18T22:33:50.288Z,55.79
2024-04-18T22:36:18.435Z,56.05
2024-04-18T22:38:48.631Z,56.33
2024-04-18T22:41:17.659Z,57.02
2024-04-18T22:43:46.181Z,56.48
2024-04-18T22:46:14.113Z,56.50
2024-04-18T22:48:42.214Z,56.65
2024-04-18T22:51:10.065Z,57.18
2024-04-18T22:53:42.580Z,57.42
2024-04-18T22:56:10.632Z,57.63
2024-04-18T22:58:39.703Z,57.58
2024-04-18T23:01:11.537Z,58.48
2024-04-18T23:03:41.030Z,58.35
2024-04-18T23:06:08.879Z,58.49
2024-04-18T23:08:37.156Z,58.47
2024-04-18T23:11:06.119Z,59.06
2024-04-18T23:13:36.696Z,59.02
2024-04-18T23:16:06.146Z,59.45
2024-04-18T23:18:34.009Z,60.04
2024-04-18T23:21:01.922Z,60.32
2024-04-18T23:23:30.015Z,60.66
2024-04-18T23:25:58.067Z,60.98
2024-04-18T23:28:27.140Z,61.01
2024-04-18T23:30:56.882Z,62.62
2024-04-18T23:33:25.777Z,63.93
2024-04-18T23:35:55.852Z,67.30
2024-04-18T23:38:24.131Z,69.86
2024-04-18T23:40:51.931Z,63.98
2024-04-18T23:43:21.572Z,53.76
2024-04-18T23:45:49.845Z,51.72
2024-04-18T23:48:20.974Z,52.12
2024-04-18T23:50:49.785Z,52.59
2024-04-18T23:53:18.179Z,54.56
2024-04-18T23:55:49.819Z,56.29
2024-04-18T23:58:18.026Z,56.37
